Time;durP1;ratioP1;P1;durP2;ratioP2;P2;SDS_P1;SDS_P2;PMS_P1;PMS_P2;Temp;Humidity;BMP_temperature;BMP_pressure;BME280_temperature;BME280_humidity;BME280_pressure;Samples;Min_cycle;Max_cycle;Signal;HPM_P1;HPM_P2
2022/08/05 00:01:45;;;;;;;6.27;3.20;;;19.40;99.90;;;;;;5072203;28;20047;-82
2022/08/05 00:04:10;;;;;;;10.13;4.20;;;19.40;99.90;;;;;;5072787;28;20060;-82
2022/08/05 00:06:36;;;;;;;8.47;3.60;;;19.30;99.90;;;;;;5072562;28;20056;-81
2022/08/05 00:09:03;;;;;;;7.07;3.90;;;19.30;99.90;;;;;;5072436;28;20558;-81
2022/08/05 00:11:29;;;;;;;8.15;4.38;;;19.30;99.90;;;;;;5073321;28;20037;-81
2022/08/05 00:13:55;;;;;;;15.27;4.70;;;19.40;99.90;;;;;;5072175;28;20051;-81
2022/08/05 00:16:20;;;;;;;6.60;3.97;;;19.20;99.90;;;;;;5072011;28;20044;-82
2022/08/05 00:18:47;;;;;;;6.83;4.00;;;19.20;99.90;;;;;;5072421;28;20036;-82
2022/08/05 00:21:14;;;;;;;5.63;3.92;;;19.20;99.90;;;;;;5073272;28;20040;-81
2022/08/05 00:23:40;;;;;;;;;;;19.20;99.90;;;;;;5056383;28;20381;-82
2022/08/05 00:26:07;;;;;;;6.43;4.03;;;19.10;99.90;;;;;;5072919;28;19920;-81
2022/08/05 00:28:35;;;;;;;8.25;4.50;;;19.20;99.90;;;;;;5072212;28;20400;-82
2022/08/05 00:31:01;;;;;;;8.30;4.25;;;19.20;99.90;;;;;;5072201;28;20041;-83
2022/08/05 00:33:27;;;;;;;7.97;4.43;;;19.20;99.90;;;;;;5073191;28;20051;-80
2022/08/05 00:35:53;;;;;;;9.07;4.40;;;19.10;99.90;;;;;;5073414;28;20037;-81
2022/08/05 00:38:18;;;;;;;9.00;3.77;;;19.10;99.90;;;;;;5072925;28;20546;-81
2022/08/05 00:40:53;;;;;;;5.33;4.13;;;19.10;99.90;;;;;;5071831;28;20283;-80
2022/08/05 00:43:20;;;;;;;10.10;4.78;;;19.10;99.90;;;;;;5055664;28;20147;-81
2022/08/05 00:45:46;;;;;;;;;;;19.20;99.90;;;;;;5072506;28;20045;-82
2022/08/05 00:48:18;;;;;;;7.18;4.28;;;19.10;99.90;;;;;;5074465;28;20007;-82
2022/08/05 00:50:46;;;;;;;7.95;4.60;;;19.10;99.90;;;;;;5075510;28;20127;-81
2022/08/05 00:53:13;;;;;;;9.27;4.25;;;19.20;99.90;;;;;;5076578;28;20045;-83
2022/08/05 00:55:38;;;;;;;8.38;4.43;;;19.20;99.90;;;;;;5075455;28;20072;-82
2022/08/05 00:58:04;;;;;;;6.53;4.23;;;19.20;99.90;;;;;;5075570;28;20083;-82
2022/08/05 01:00:30;;;;;;;7.37;4.40;;;19.20;99.90;;;;;;5075583;28;20115;-82
2022/08/05 01:02:57;;;;;;;7.60;4.75;;;19.30;99.90;;;;;;5075900;28;20041;-81
2022/08/05 01:05:24;;;;;;;7.95;4.82;;;19.30;99.90;;;;;;5075118;28;20048;-81
2022/08/05 01:07:50;;;;;;;8.63;5.07;;;19.30;99.90;;;;;;5075426;28;20048;-81
2022/08/05 01:10:19;;;;;;;7.80;4.43;;;19.20;99.90;;;;;;5076315;28;20464;-82
2022/08/05 01:12:51;;;;;;;10.20;5.20;;;19.10;99.90;;;;;;5076239;28;20050;-82
2022/08/05 01:15:24;;;;;;;8.35;4.63;;;19.30;99.90;;;;;;5075349;28;20037;-82
2022/08/05 01:18:02;;;;;;;9.32;4.70;;;19.20;99.90;;;;;;5058802;28;20378;-82
2022/08/05 01:20:37;;;;;;;6.95;4.32;;;19.10;99.90;;;;;;5075206;28;20093;-82
2022/08/05 01:23:20;;;;;;;7.40;4.53;;;19.10;99.90;;;;;;5075294;28;20040;-82
2022/08/05 01:26:17;;;;;;;6.00;4.22;;;19.10;99.90;;;;;;5074946;28;20526;-82
2022/08/05 01:28:44;;;;;;;10.35;5.10;;;19.10;99.90;;;;;;5075723;28;20044;-80
2022/08/05 01:31:23;;;;;;;7.95;4.53;;;19.10;99.90;;;;;;5074479;28;20532;-80
2022/08/05 01:34:12;;;;;;;7.72;4.57;;;19.10;99.90;;;;;;5075690;28;20531;-83
2022/08/05 01:36:49;;;;;;;8.32;4.68;;;19.10;99.90;;;;;;5074700;28;20036;-82
2022/08/05 01:39:16;;;;;;;6.47;4.40;;;19.00;99.90;;;;;;5074377;28;20546;-80
2022/08/05 01:41:44;;;;;;;6.97;4.38;;;19.00;99.90;;;;;;5058783;28;20048;-81
2022/08/05 01:44:11;;;;;;;6.57;3.90;;;19.20;99.90;;;;;;5058217;28;20044;-81
2022/08/05 01:46:39;;;;;;;9.52;4.97;;;19.30;99.90;;;;;;5074463;28;20520;-82
2022/08/05 01:49:05;;;;;;;7.43;4.68;;;19.10;99.90;;;;;;5074199;28;20097;-81
2022/08/05 01:51:34;;;;;;;8.60;5.07;;;19.00;99.90;;;;;;5074393;28;20393;-81
2022/08/05 01:54:04;;;;;;;6.63;5.13;;;19.00;99.90;;;;;;5075378;28;20107;-82
2022/08/05 01:56:33;;;;;;;8.80;5.53;;;19.00;99.90;;;;;;5075332;28;20112;-83
2022/08/05 01:59:03;;;;;;;7.93;4.88;;;19.00;99.90;;;;;;5074567;28;20491;-82
2022/08/05 02:01:30;;;;;;;7.18;4.70;;;18.90;99.90;;;;;;5074721;28;20366;-81
2022/08/05 02:03:56;;;;;;;9.30;4.55;;;18.90;99.90;;;;;;5075281;28;20044;-80
2022/08/05 02:06:22;;;;;;;11.25;5.97;;;18.90;99.90;;;;;;5074027;28;20052;-80
2022/08/05 02:08:48;;;;;;;6.33;4.93;;;18.90;99.90;;;;;;5075224;28;20053;-80
2022/08/05 02:11:16;;;;;;;8.82;5.38;;;18.80;99.90;;;;;;5075586;28;20487;-80
2022/08/05 02:13:57;;;;;;;8.27;5.50;;;18.90;99.90;;;;;;5075264;28;20442;-82
2022/08/05 02:16:28;;;;;;;9.65;5.55;;;18.80;99.90;;;;;;5074052;28;20051;-81
2022/08/05 02:19:02;;;;;;;8.10;4.65;;;18.80;99.90;;;;;;5074800;28;20489;-82
2022/08/05 02:21:33;;;;;;;8.30;4.93;;;18.80;99.90;;;;;;5057014;28;20489;-80
2022/08/05 02:24:05;;;;;;;7.55;5.30;;;18.80;99.90;;;;;;5074130;28;20114;-82
2022/08/05 02:26:50;;;;;;;7.50;5.40;;;18.80;99.90;;;;;;5074865;28;20040;-81
2022/08/05 02:29:20;;;;;;;8.82;6.05;;;18.80;99.90;;;;;;5074722;28;20048;-81
2022/08/05 02:31:47;;;;;;;8.52;5.88;;;18.80;99.90;;;;;;5074724;28;20109;-81
2022/08/05 02:34:15;;;;;;;10.43;5.90;;;18.80;99.90;;;;;;5073700;28;20416;-81
2022/08/05 02:36:44;;;;;;;11.73;5.78;;;18.80;99.90;;;;;;5074556;28;20044;-81
2022/08/05 02:39:14;;;;;;;10.80;6.03;;;18.70;99.90;;;;;;5057206;28;20048;-81
2022/08/05 02:41:42;;;;;;;7.93;5.30;;;18.70;99.90;;;;;;5074491;28;20405;-80
2022/08/05 02:44:08;;;;;;;9.65;6.40;;;18.70;99.90;;;;;;5074367;28;20503;-81
2022/08/05 02:46:35;;;;;;;7.50;5.85;;;18.60;99.90;;;;;;5074493;28;20397;-81
2022/08/05 02:49:02;;;;;;;9.43;6.40;;;18.80;99.90;;;;;;5073910;28;20087;-81
2022/08/05 02:51:29;;;;;;;8.95;6.05;;;18.70;99.90;;;;;;5073317;28;20044;-80
2022/08/05 02:53:55;;;;;;;9.02;6.38;;;18.60;99.90;;;;;;5073269;28;20485;-80
2022/08/05 02:56:21;;;;;;;10.75;6.10;;;18.70;99.90;;;;;;5073035;28;20480;-81
2022/08/05 02:58:48;;;;;;;6.40;5.60;;;18.80;99.90;;;;;;5073251;28;20503;-80
2022/08/05 03:01:16;;;;;;;;;;;18.60;99.90;;;;;;5073711;28;20052;-80
2022/08/05 03:03:42;;;;;;;;;;;18.70;99.90;;;;;;5074625;28;19924;-80
2022/08/05 03:06:10;;;;;;;9.43;6.40;;;18.60;99.90;;;;;;5072929;28;19921;-81
2022/08/05 03:08:37;;;;;;;10.30;6.10;;;18.60;99.90;;;;;;5073204;28;20040;-81
2022/08/05 03:11:03;;;;;;;10.00;6.63;;;18.70;99.90;;;;;;5073996;28;20102;-81
2022/08/05 03:13:28;;;;;;;9.17;6.47;;;18.60;99.90;;;;;;5056318;28;20040;-81
2022/08/05 03:15:54;;;;;;;8.20;6.13;;;18.80;99.90;;;;;;5073490;28;20044;-81
2022/08/05 03:18:20;;;;;;;10.97;6.40;;;18.80;99.90;;;;;;5073942;28;20052;-81
2022/08/05 03:20:45;;;;;;;8.37;6.30;;;18.60;99.90;;;;;;5073994;28;20044;-81
2022/08/05 03:23:13;;;;;;;10.40;6.85;;;18.60;99.90;;;;;;5056469;28;20456;-81
2022/08/05 03:25:39;;;;;;;12.70;6.88;;;18.60;99.90;;;;;;5072761;28;20397;-81
2022/08/05 03:28:06;;;;;;;12.00;6.72;;;18.60;99.90;;;;;;5072624;28;20080;-81
2022/08/05 03:30:33;;;;;;;10.27;6.88;;;18.60;99.90;;;;;;5073079;28;20432;-81
2022/08/05 03:33:03;;;;;;;11.52;7.13;;;18.50;99.90;;;;;;5073453;28;20489;-81
2022/08/05 03:35:30;;;;;;;9.48;6.70;;;18.60;99.90;;;;;;5073095;28;20374;-81
2022/08/05 03:37:57;;;;;;;10.30;6.70;;;18.50;99.90;;;;;;5073679;28;20047;-81
2022/08/05 03:40:23;;;;;;;11.40;6.95;;;18.50;99.90;;;;;;5072728;28;20047;-81
2022/08/05 03:42:48;;;;;;;10.73;7.07;;;18.50;99.90;;;;;;5072465;28;20040;-80
2022/08/05 03:45:14;;;;;;;10.37;7.00;;;18.70;99.90;;;;;;5072500;28;20045;-80
2022/08/05 03:47:40;;;;;;;9.17;6.17;;;18.50;99.90;;;;;;5073443;28;20048;-81
2022/08/05 03:50:06;;;;;;;7.53;6.67;;;18.50;99.90;;;;;;5072879;28;20091;-81
2022/08/05 03:52:36;;;;;;;9.63;6.28;;;18.50;99.90;;;;;;5072614;28;20476;-81
2022/08/05 03:55:09;;;;;;;6.85;6.00;;;18.50;99.90;;;;;;5073489;28;20052;-81
2022/08/05 03:57:39;;;;;;;7.05;5.95;;;18.50;99.90;;;;;;5073588;28;20048;-81
2022/08/05 04:00:08;;;;;;;11.20;6.75;;;18.50;99.90;;;;;;5072331;28;20036;-81
2022/08/05 04:02:35;;;;;;;9.20;6.60;;;18.50;99.90;;;;;;5073383;28;20044;-80
2022/08/05 04:05:02;;;;;;;9.45;6.10;;;18.50;99.90;;;;;;5073216;28;20373;-81
2022/08/05 04:07:28;;;;;;;9.48;6.82;;;18.60;99.90;;;;;;5072499;28;20036;-81
2022/08/05 04:09:55;;;;;;;7.03;6.13;;;18.50;99.90;;;;;;5073324;28;20087;-81
2022/08/05 04:12:21;;;;;;;;;;;18.50;99.90;;;;;;5072916;28;20041;-81
2022/08/05 04:14:47;;;;;;;10.48;7.20;;;18.50;99.90;;;;;;5055630;28;20280;-81
2022/08/05 04:17:13;;;;;;;13.93;6.80;;;18.40;99.90;;;;;;5072419;28;20049;-81
2022/08/05 04:19:43;;;;;;;9.83;6.30;;;18.30;99.90;;;;;;5071934;28;20287;-81
2022/08/05 04:22:08;;;;;;;12.73;7.05;;;18.30;99.90;;;;;;5073533;28;20056;-80
2022/08/05 04:24:34;;;;;;;7.20;6.10;;;18.30;99.90;;;;;;5077117;28;20049;-80
2022/08/05 04:26:59;;;;;;;8.30;6.10;;;18.30;99.90;;;;;;5076266;28;20141;-80
2022/08/05 04:29:25;;;;;;;9.20;6.40;;;18.30;99.90;;;;;;5076160;28;20502;-80
2022/08/05 04:31:51;;;;;;;9.20;6.57;;;18.30;99.90;;;;;;5077107;28;20045;-80
2022/08/05 04:34:16;;;;;;;8.10;6.07;;;18.30;99.90;;;;;;5076995;28;20072;-81
2022/08/05 04:36:42;;;;;;;11.37;6.27;;;18.40;99.90;;;;;;5059067;28;20036;-80
2022/08/05 04:39:08;;;;;;;9.10;5.90;;;18.40;99.90;;;;;;5076790;28;20047;-80
2022/08/05 04:41:33;;;;;;;10.00;6.23;;;18.30;99.90;;;;;;5075874;28;20045;-80
2022/08/05 04:43:59;;;;;;;8.17;6.30;;;18.40;99.90;;;;;;5076868;28;20051;-80
2022/08/05 04:46:24;;;;;;;9.10;6.07;;;18.40;99.90;;;;;;5075692;28;20040;-80
2022/08/05 04:48:50;;;;;;;9.57;6.23;;;18.50;99.90;;;;;;5075477;28;20488;-81
2022/08/05 04:51:16;;;;;;;10.93;6.37;;;18.40;99.90;;;;;;5076741;28;20066;-81
2022/08/05 04:53:42;;;;;;;9.93;6.78;;;18.40;99.90;;;;;;5076555;28;20055;-81
2022/08/05 04:56:08;;;;;;;9.63;6.03;;;18.40;99.90;;;;;;5076514;28;20385;-81
2022/08/05 04:58:33;;;;;;;10.00;5.73;;;18.40;99.90;;;;;;5076622;28;20045;-82
2022/08/05 05:00:59;;;;;;;9.23;5.13;;;18.40;99.90;;;;;;5076394;28;20056;-88
2022/08/05 05:03:24;;;;;;;10.77;5.73;;;18.40;99.90;;;;;;5075575;28;20557;-85
2022/08/05 05:05:50;;;;;;;8.17;5.60;;;18.40;99.90;;;;;;5075572;28;20492;-83
2022/08/05 05:08:16;;;;;;;5.87;4.90;;;18.50;99.90;;;;;;5075450;28;20075;-83
2022/08/05 05:10:44;;;;;;;6.70;3.77;;;18.40;99.90;;;;;;5075310;28;20052;-86
2022/08/05 05:13:12;;;;;;;7.78;4.10;;;18.40;99.90;;;;;;5075672;28;20044;-88
2022/08/05 05:15:39;;;;;;;7.93;4.65;;;18.40;99.90;;;;;;5076363;28;20037;-83
2022/08/05 05:18:05;;;;;;;;;;;18.70;99.90;;;;;;5075804;28;20051;-86
2022/08/05 05:20:31;;;;;;;8.93;5.55;;;18.40;99.90;;;;;;5058591;28;19920;-87
2022/08/05 05:22:58;;;;;;;10.43;5.60;;;18.40;99.90;;;;;;5058431;28;20044;-82
2022/08/05 05:25:24;;;;;;;14.98;5.45;;;18.40;99.90;;;;;;5058549;28;20036;-85
2022/08/05 05:27:51;;;;;;;8.02;5.40;;;18.50;99.90;;;;;;5074846;28;20040;-84
2022/08/05 05:30:17;;;;;;;6.63;4.50;;;18.50;99.90;;;;;;5075061;28;20098;-86
2022/08/05 05:32:42;;;;;;;12.10;4.90;;;18.60;99.90;;;;;;5074606;28;20500;-82
2022/08/05 05:35:08;;;;;;;7.10;4.30;;;18.50;99.90;;;;;;5074824;28;20036;-85
2022/08/05 05:37:44;;;;;;;7.17;4.00;;;18.50;99.90;;;;;;5075821;28;20041;-83
2022/08/05 05:40:13;;;;;;;9.50;5.05;;;18.50;99.90;;;;;;5074895;28;20036;-82
2022/08/05 05:42:39;;;;;;;6.28;4.40;;;18.50;99.90;;;;;;5075166;28;20044;-87
2022/08/05 05:45:05;;;;;;;7.50;4.67;;;18.50;99.90;;;;;;5074709;28;20438;-84
2022/08/05 05:47:31;;;;;;;6.65;4.55;;;18.60;99.90;;;;;;5074766;28;20056;-83
2022/08/05 05:50:01;;;;;;;9.03;4.03;;;18.70;99.90;;;;;;5075373;28;20048;-92
2022/08/05 05:52:34;;;;;;;12.45;4.78;;;18.60;99.90;;;;;;5059704;28;20512;-92
2022/08/05 05:55:07;;;;;;;5.50;3.90;;;18.60;99.90;;;;;;5076125;28;20492;-90
2022/08/05 05:57:34;;;;;;;4.88;2.90;;;;;;;;;;5074862;28;20044;-92
2022/08/05 05:59:59;;;;;;;11.32;4.10;;;18.50;99.90;;;;;;5058197;28;20044;-86
2022/08/05 06:02:25;;;;;;;6.30;4.27;;;18.50;99.90;;;;;;5076172;28;20048;-87
2022/08/05 06:04:51;;;;;;;7.90;3.97;;;18.40;99.90;;;;;;5074972;28;20044;-90
2022/08/05 06:07:16;;;;;;;7.23;4.10;;;18.60;99.90;;;;;;5074547;28;20066;-87
2022/08/05 06:09:42;;;;;;;6.43;4.10;;;18.60;99.90;;;;;;5059422;28;20045;-86
2022/08/05 06:12:15;;;;;;;4.80;3.40;;;18.90;99.90;;;;;;5063063;28;20044;-94
2022/08/05 06:14:43;;;;;;;6.22;3.42;;;18.60;99.90;;;;;;5076449;28;20036;-89
2022/08/05 06:17:10;;;;;;;4.75;3.10;;;19.00;99.90;;;;;;5075562;28;20075;-89
2022/08/05 06:19:37;;;;;;;9.82;4.03;;;18.60;99.90;;;;;;5060156;28;20056;-84
2022/08/05 06:22:04;;;;;;;6.87;3.93;;;18.60;99.90;;;;;;5057528;28;20048;-85
2022/08/05 06:24:31;;;;;;;8.52;4.07;;;18.60;99.90;;;;;;5057280;28;20060;-82
2022/08/05 06:26:57;;;;;;;8.85;4.22;;;18.70;99.90;;;;;;5074855;28;20493;-81
2022/08/05 06:29:23;;;;;;;8.90;4.03;;;18.70;99.90;;;;;;5074996;28;20162;-85
2022/08/05 06:31:48;;;;;;;4.45;2.92;;;18.60;99.90;;;;;;5074955;28;20396;-84
2022/08/05 06:34:14;;;;;;;7.93;4.07;;;18.70;99.90;;;;;;5057090;28;20041;-88
2022/08/05 06:36:40;;;;;;;4.77;3.00;;;18.70;99.90;;;;;;5073392;28;20040;-84
2022/08/05 06:39:05;;;;;;;7.03;3.57;;;18.70;99.90;;;;;;5057106;28;20110;-84
2022/08/05 06:41:31;;;;;;;10.53;3.90;;;18.70;99.90;;;;;;5073958;28;20074;-88
2022/08/05 06:43:57;;;;;;;6.40;3.53;;;18.60;99.90;;;;;;5073661;28;20045;-84
2022/08/05 06:46:23;;;;;;;6.67;3.80;;;18.80;99.90;;;;;;5073985;28;20404;-86
2022/08/05 06:48:48;;;;;;;8.50;3.80;;;18.90;99.90;;;;;;5056257;28;20505;-84
2022/08/05 06:51:14;;;;;;;7.83;2.70;;;19.00;99.90;;;;;;5074130;28;20056;-87
2022/08/05 06:53:39;;;;;;;5.33;2.77;;;19.00;99.90;;;;;;5073196;28;20473;-85
2022/08/05 06:56:05;;;;;;;5.93;2.43;;;19.40;99.90;;;;;;5073270;28;20095;-85
2022/08/05 06:58:31;;;;;;;6.63;4.07;;;19.10;99.90;;;;;;5073501;28;20045;-83
2022/08/05 07:01:00;;;;;;;5.70;3.20;;;19.20;99.90;;;;;;5073636;28;20489;-87
2022/08/05 07:03:27;;;;;;;4.28;2.25;;;19.40;99.90;;;;;;5056639;28;20040;-83
2022/08/05 07:05:53;;;;;;;6.43;2.65;;;19.60;99.90;;;;;;5074337;28;20044;-87
2022/08/05 07:08:21;;;;;;;5.78;2.70;;;19.20;99.90;;;;;;5056922;28;20484;-88
2022/08/05 07:10:47;;;;;;;7.18;3.00;;;19.20;99.90;;;;;;5073631;28;20040;-91
2022/08/05 07:18:42;;;;;;;7.38;3.08;;;19.30;99.90;;;;;;5074152;28;20136;-88
2022/08/05 07:21:08;;;;;;;4.67;3.00;;;19.40;99.90;;;;;;5056466;28;20123;-89
2022/08/05 07:23:34;;;;;;;5.97;2.70;;;19.30;99.90;;;;;;5056397;28;20137;-86
2022/08/05 07:25:59;;;;;;;6.43;3.37;;;19.60;99.90;;;;;;5056373;28;20040;-87
2022/08/05 07:28:25;;;;;;;5.17;2.63;;;19.60;99.90;;;;;;5072782;28;20758;-90
2022/08/05 07:30:51;;;;;;;8.13;2.72;;;19.40;99.90;;;;;;5073329;28;20044;-89
2022/08/05 07:33:20;;;;;;;6.53;2.33;;;19.50;99.90;;;;;;5056634;28;20043;-89
2022/08/05 07:35:46;;;;;;;4.75;2.55;;;19.70;99.90;;;;;;5056470;28;20043;-85
2022/08/05 07:38:12;;;;;;;4.65;2.40;;;19.70;99.90;;;;;;5073850;28;20070;-86
2022/08/05 07:40:37;;;;;;;4.80;2.93;;;19.40;99.90;;;;;;5055965;28;20127;-89
2022/08/05 07:43:03;;;;;;;6.53;2.87;;;19.40;99.90;;;;;;5072857;28;20040;-87
2022/08/05 07:45:28;;;;;;;3.73;2.13;;;19.50;99.90;;;;;;5072697;28;20048;-88
2022/08/05 07:47:54;;;;;;;5.30;2.40;;;19.60;99.90;;;;;;5054815;28;20392;-88
2022/08/05 07:50:20;;;;;;;5.47;2.40;;;19.60;99.90;;;;;;5073693;28;20044;-88
2022/08/05 07:52:45;;;;;;;4.10;2.50;;;19.80;99.90;;;;;;5056145;28;20141;-89
2022/08/05 07:55:11;;;;;;;6.53;2.80;;;19.90;99.90;;;;;;5072521;28;20063;-85
2022/08/05 07:57:36;;;;;;;4.73;2.33;;;20.40;99.90;;;;;;5057935;28;20429;-84
2022/08/05 08:00:07;;;;;;;3.30;2.00;;;20.20;99.90;;;;;;5076716;28;20036;-84
2022/08/05 08:02:33;;;;;;;3.58;1.90;;;20.40;99.90;;;;;;5077780;28;20447;-85
2022/08/05 08:05:00;;;;;;;2.60;1.47;;;20.40;99.90;;;;;;5077566;28;20032;-83
2022/08/05 08:07:26;;;;;;;3.42;2.20;;;20.70;99.90;;;;;;5076358;28;20044;-84
2022/08/05 08:09:52;;;;;;;5.63;2.20;;;20.50;99.90;;;;;;5076300;28;20127;-83
2022/08/05 08:12:18;;;;;;;3.25;1.60;;;20.60;99.90;;;;;;5075387;28;20545;-82
2022/08/05 08:14:44;;;;;;;6.70;1.83;;;20.80;99.90;;;;;;5076824;28;20048;-82
2022/08/05 08:17:10;;;;;;;4.03;1.95;;;20.80;99.90;;;;;;5074975;28;20033;-81
2022/08/05 08:19:37;;;;;;;6.70;1.97;;;21.00;99.90;;;;;;5077249;28;20447;-82
2022/08/05 08:22:03;;;;;;;4.88;1.77;;;20.90;99.90;;;;;;5076582;28;20059;-81
2022/08/05 08:24:29;;;;;;;3.95;1.70;;;20.80;99.90;;;;;;5076409;28;20044;-83
2022/08/05 08:26:55;;;;;;;4.93;1.95;;;20.90;99.90;;;;;;5077129;28;20045;-83
2022/08/05 08:29:20;;;;;;;4.97;1.73;;;21.00;99.90;;;;;;5076190;28;20037;-80
2022/08/05 08:31:46;;;;;;;4.10;1.67;;;21.00;99.90;;;;;;5077442;28;20141;-82
2022/08/05 08:34:12;;;;;;;3.40;1.40;;;21.00;99.90;;;;;;5077096;28;20040;-80
2022/08/05 08:36:38;;;;;;;4.70;1.37;;;21.10;99.90;;;;;;5076658;28;20044;-82
2022/08/05 08:39:03;;;;;;;3.23;1.37;;;21.10;99.90;;;;;;5076969;28;20048;-81
2022/08/05 08:41:33;;;;;;;3.40;1.30;;;21.20;99.90;;;;;;5076764;28;20052;-80
2022/08/05 08:44:00;;;;;;;2.83;1.33;;;21.20;99.90;;;;;;5076835;28;20044;-82
2022/08/05 08:46:31;;;;;;;3.60;1.30;;;21.20;99.90;;;;;;5076414;28;20094;-80
2022/08/05 08:48:57;;;;;;;4.22;1.52;;;21.20;99.90;;;;;;5075606;28;20044;-80
2022/08/05 08:51:29;;;;;;;5.50;1.52;;;21.20;99.90;;;;;;5075390;28;20544;-81
2022/08/05 08:53:54;;;;;;;3.60;1.30;;;21.30;99.90;;;;;;5076640;28;20048;-80
2022/08/05 08:56:22;;;;;;;5.87;1.70;;;21.30;99.90;;;;;;5076412;28;20036;-81
2022/08/05 08:58:48;;;;;;;2.42;1.20;;;21.30;99.90;;;;;;5077096;28;20047;-81
2022/08/05 09:01:14;;;;;;;3.93;1.10;;;21.40;99.90;;;;;;5075597;28;20123;-82
2022/08/05 09:03:40;;;;;;;5.93;1.60;;;21.30;99.90;;;;;;5075532;28;20506;-80
2022/08/05 09:06:06;;;;;;;3.58;1.20;;;21.30;99.90;;;;;;5076475;28;20124;-83
2022/08/05 09:08:32;;;;;;;2.70;1.15;;;21.40;99.90;;;;;;5076120;28;20040;-80
2022/08/05 09:10:58;;;;;;;4.22;1.75;;;21.50;99.90;;;;;;5076311;28;20040;-82
2022/08/05 09:13:24;;;;;;;4.10;1.15;;;21.50;99.90;;;;;;5076052;28;20128;-82
2022/08/05 09:15:51;;;;;;;2.40;1.17;;;21.50;99.90;;;;;;5076126;28;20127;-80
2022/08/05 09:18:17;;;;;;;;;;;21.50;99.90;;;;;;5076682;28;20048;-82
2022/08/05 09:20:44;;;;;;;4.05;1.10;;;21.40;99.90;;;;;;5075186;28;19927;-81
2022/08/05 09:23:19;;;;;;;3.20;1.40;;;21.40;99.90;;;;;;5076188;28;20059;-80
2022/08/05 09:25:49;;;;;;;2.05;0.98;;;21.40;99.90;;;;;;5076111;28;20049;-80
2022/08/05 09:28:20;;;;;;;1.90;1.10;;;21.50;99.90;;;;;;5076386;28;20058;-81
2022/08/05 09:30:57;;;;;;;5.97;1.45;;;21.50;99.90;;;;;;5076349;28;20055;-80
2022/08/05 09:33:24;;;;;;;3.35;1.00;;;21.60;99.90;;;;;;5075691;28;20048;-82
2022/08/05 09:36:01;;;;;;;1.70;0.98;;;21.60;99.90;;;;;;5075807;28;20132;-82
2022/08/05 09:38:28;;;;;;;3.90;0.90;;;21.90;99.90;;;;;;5076003;28;20043;-81
2022/08/05 09:41:02;;;;;;;4.57;1.17;;;21.80;99.90;;;;;;5075957;28;20040;-81
2022/08/05 09:43:38;;;;;;;3.25;0.90;;;22.00;99.90;;;;;;5074170;28;20079;-80
2022/08/05 09:46:10;;;;;;;1.52;0.82;;;21.90;99.90;;;;;;5058452;28;20094;-88
2022/08/05 09:48:37;;;;;;;2.75;0.90;;;22.10;99.90;;;;;;5057997;28;20480;-86
2022/08/05 09:51:08;;;;;;;2.78;0.75;;;22.20;99.90;;;;;;5058285;28;20523;-87
2022/08/05 09:53:50;;;;;;;3.35;1.10;;;22.20;99.90;;;;;;5058553;28;20055;-87
2022/08/05 09:56:37;;;;;;;2.75;0.85;;;22.30;99.90;;;;;;5076148;28;20039;-86
2022/08/05 09:59:09;;;;;;;2.20;1.00;;;22.40;99.90;;;;;;5058380;28;20087;-88
2022/08/05 10:01:39;;;;;;;2.33;0.90;;;22.40;99.90;;;;;;5058541;28;20083;-87
2022/08/05 10:04:07;;;;;;;2.83;1.00;;;22.20;99.90;;;;;;5075440;28;20500;-83
2022/08/05 10:06:33;;;;;;;1.88;0.70;;;22.80;99.90;;;;;;5073947;28;20532;-79
2022/08/05 10:09:14;;;;;;;1.70;0.70;;;22.60;99.90;;;;;;5075049;28;20132;-83
2022/08/05 10:11:41;;;;;;;3.30;0.80;;;22.90;99.90;;;;;;5074897;28;20119;-83
2022/08/05 10:14:26;;;;;;;2.10;0.80;;;23.00;99.90;;;;;;5041150;28;20140;-84
2022/08/05 10:16:56;;;;;;;2.28;0.88;;;23.30;99.90;;;;;;5074240;28;20045;-84
2022/08/05 10:19:23;;;;;;;2.20;0.90;;;23.30;99.90;;;;;;5074751;28;20052;-86
2022/08/05 10:21:49;;;;;;;3.58;1.00;;;23.40;99.90;;;;;;5074846;28;20052;-83
2022/08/05 10:24:17;;;;;;;3.25;1.00;;;23.20;99.90;;;;;;5074908;28;20047;-84
2022/08/05 10:26:44;;;;;;;1.80;0.70;;;23.30;99.90;;;;;;5075605;28;20387;-84
2022/08/05 10:29:10;;;;;;;2.70;0.80;;;23.40;99.90;;;;;;5073749;28;20477;-84
2022/08/05 10:31:40;;;;;;;2.43;0.80;;;23.50;99.90;;;;;;5057577;28;20041;-85
2022/08/05 10:34:09;;;;;;;1.63;0.63;;;23.60;99.90;;;;;;5073652;28;20059;-84
2022/08/05 10:36:37;;;;;;;3.17;0.57;;;23.70;99.90;;;;;;5073518;28;20040;-80
2022/08/05 10:39:10;;;;;;;2.05;0.70;;;23.70;99.50;;;;;;5074622;28;20044;-83
2022/08/05 10:41:45;;;;;;;1.00;0.60;;;23.80;98.20;;;;;;5057286;28;20435;-86
2022/08/05 10:44:17;;;;;;;1.60;0.60;;;23.90;98.10;;;;;;5056587;28;20122;-85
2022/08/05 10:46:54;;;;;;;3.50;0.75;;;24.10;97.60;;;;;;5073600;28;20097;-86
2022/08/05 10:49:22;;;;;;;1.80;0.60;;;23.80;97.50;;;;;;5056746;28;20053;-85
2022/08/05 10:51:50;;;;;;;2.33;0.70;;;23.60;98.80;;;;;;5054445;28;20091;-91
2022/08/05 10:54:16;;;;;;;1.65;0.60;;;23.60;98.40;;;;;;5053131;28;20110;-88
2022/08/05 10:56:54;;;;;;;2.90;0.90;;;23.80;97.50;;;;;;5036095;28;20132;-89
2022/08/05 10:59:31;;;;;;;2.10;0.70;;;23.60;96.70;;;;;;5053190;28;20059;-83
2022/08/05 11:02:11;;;;;;;2.17;0.60;;;23.50;96.30;;;;;;5052850;28;20045;-85
2022/08/05 11:04:48;;;;;;;2.83;0.70;;;23.40;95.40;;;;;;5036568;28;20136;-82
2022/08/05 11:07:16;;;;;;;1.67;0.60;;;23.40;94.20;;;;;;5036228;28;20087;-82
2022/08/05 11:09:56;;;;;;;1.10;0.50;;;23.50;94.80;;;;;;5052910;28;20072;-86
2022/08/05 11:12:42;;;;;;;2.97;0.90;;;23.40;93.90;;;;;;5058479;28;20041;-88
2022/08/05 11:15:22;;;;;;;1.83;0.55;;;23.60;92.90;;;;;;5073087;28;20056;-83
2022/08/05 11:18:05;;;;;;;2.03;0.60;;;23.70;93.60;;;;;;5055970;28;20052;-85
2022/08/05 11:20:46;;;;;;;2.55;0.60;;;23.80;94.10;;;;;;5072795;28;20166;-86
2022/08/05 11:23:30;;;;;;;1.20;0.60;;;23.80;91.90;;;;;;5073021;28;20048;-84
2022/08/05 11:26:05;;;;;;;0.82;0.50;;;23.80;92.30;;;;;;5073860;28;20445;-82
2022/08/05 11:28:31;;;;;;;1.20;0.50;;;23.80;93.20;;;;;;5056177;28;20045;-82
2022/08/05 11:30:57;;;;;;;2.83;0.70;;;23.90;93.20;;;;;;5073803;28;20117;-82
2022/08/05 11:33:34;;;;;;;4.27;0.50;;;24.00;93.80;;;;;;5056333;28;20088;-82
2022/08/05 11:36:11;;;;;;;1.67;0.63;;;24.00;89.30;;;;;;5073708;28;20041;-84
2022/08/05 11:38:42;;;;;;;2.30;0.60;;;24.00;90.20;;;;;;5072951;28;20047;-83
2022/08/05 11:41:14;;;;;;;2.80;0.70;;;24.10;91.00;;;;;;5072362;28;20551;-83
2022/08/05 11:44:00;;;;;;;2.17;0.50;;;24.10;91.30;;;;;;5072477;28;20139;-84
2022/08/05 11:46:27;;;;;;;2.28;0.52;;;24.00;90.10;;;;;;5065321;28;20166;-85
2022/08/05 11:48:53;;;;;;;1.40;0.50;;;24.00;87.40;;;;;;5055373;28;20052;-83
2022/08/05 11:51:19;;;;;;;2.03;0.40;;;24.10;90.10;;;;;;5073635;28;20044;-85
2022/08/05 11:53:46;;;;;;;1.40;0.50;;;24.10;90.30;;;;;;5055681;28;20063;-83
2022/08/05 11:56:12;;;;;;;0.55;0.40;;;24.40;88.40;;;;;;5072444;28;20087;-87
2022/08/05 11:58:40;;;;;;;1.30;0.50;;;24.00;88.60;;;;;;5056897;28;20079;-89
2022/08/05 12:01:10;;;;;;;1.67;0.50;;;24.40;89.60;;;;;;5072448;28;20424;-83
2022/08/05 12:03:54;;;;;;;0.70;0.40;;;24.40;88.80;;;;;;5073622;28;20040;-83
2022/08/05 12:06:27;;;;;;;0.60;0.40;;;24.40;82.20;;;;;;5055968;28;20062;-84
2022/08/05 12:08:57;;;;;;;2.63;0.40;;;24.40;84.20;;;;;;5089666;28;20090;-86
2022/08/05 12:11:30;;;;;;;2.10;0.68;;;24.30;85.10;;;;;;5073366;28;20045;-83
2022/08/05 12:13:57;;;;;;;2.40;0.40;;;24.40;86.10;;;;;;5072290;28;20048;-82
2022/08/05 12:16:24;;;;;;;1.85;0.50;;;24.00;84.50;;;;;;5072336;28;20496;-84
2022/08/05 12:18:50;;;;;;;2.38;0.50;;;24.10;83.60;;;;;;5055635;28;20048;-82
2022/08/05 12:21:22;;;;;;;1.23;0.43;;;24.10;84.20;;;;;;5071956;28;20052;-81
2022/08/05 12:24:25;;;;;;;1.05;0.50;;;24.20;82.60;;;;;;5072317;28;20064;-80
2022/08/05 12:26:53;;;;;;;1.08;0.50;;;24.30;81.80;;;;;;5055284;28;20052;-81
2022/08/05 12:29:23;;;;;;;1.65;0.40;;;24.30;85.20;;;;;;5072361;28;20040;-81
2022/08/05 12:31:51;;;;;;;3.05;0.50;;;24.20;83.50;;;;;;5070764;28;20045;-82
2022/08/05 12:34:18;;;;;;;1.85;0.47;;;24.20;85.20;;;;;;5072456;28;20040;-84
2022/08/05 12:36:45;;;;;;;1.75;0.45;;;24.10;85.60;;;;;;5071899;28;20101;-82
2022/08/05 12:39:12;;;;;;;2.78;0.50;;;24.00;85.60;;;;;;5072099;28;20088;-84
2022/08/05 12:41:39;;;;;;;1.60;0.50;;;24.10;85.70;;;;;;5072170;28;20065;-81
2022/08/05 12:44:09;;;;;;;1.30;0.47;;;24.20;86.40;;;;;;5075586;28;20055;-83
2022/08/05 12:46:38;;;;;;;1.55;0.50;;;24.20;86.80;;;;;;5075340;28;20497;-81
2022/08/05 12:49:13;;;;;;;1.15;0.40;;;24.20;84.90;;;;;;5076775;28;20092;-82
2022/08/05 12:51:46;;;;;;;2.20;0.50;;;24.30;85.90;;;;;;5093066;28;20153;-84
2022/08/05 12:54:22;;;;;;;1.33;0.60;;;24.10;84.60;;;;;;5058873;28;20075;-81
2022/08/05 12:56:50;;;;;;;1.30;0.40;;;24.00;85.00;;;;;;5076509;28;20127;-84
2022/08/05 12:59:21;;;;;;;2.38;0.52;;;23.90;86.60;;;;;;5075395;28;20396;-80
2022/08/05 13:01:56;;;;;;;1.13;0.50;;;23.80;87.70;;;;;;5076549;28;20045;-82